createdAt,value
2023-02-15T00:02:49.290Z,3.01
2023-02-15T00:10:24.516Z,2.95
2023-02-15T00:17:59.085Z,2.86
2023-02-15T00:25:34.422Z,2.75
2023-02-15T00:33:08.452Z,2.62
2023-02-15T00:40:43.541Z,2.55
2023-02-15T00:48:17.366Z,2.47
2023-02-15T00:55:52.479Z,2.39
2023-02-15T01:03:26.372Z,2.24
2023-02-15T01:11:05.821Z,2.18
2023-02-15T01:18:39.613Z,2.10
2023-02-15T01:26:15.229Z,2.00
2023-02-15T01:33:49.819Z,1.94
2023-02-15T01:41:25.058Z,1.89
2023-02-15T01:49:04.182Z,1.77
2023-02-15T01:56:41.919Z,1.70
2023-02-15T02:04:20.836Z,1.64
2023-02-15T02:11:56.186Z,1.57
2023-02-15T02:20:08.530Z,1.53
2023-02-15T02:27:50.109Z,1.46
2023-02-15T02:35:32.114Z,1.39
2023-02-15T02:43:13.894Z,1.31
2023-02-15T02:50:49.763Z,1.27
2023-02-15T02:58:27.511Z,1.23
2023-02-15T03:06:06.817Z,1.15
2023-02-15T03:13:41.888Z,1.11
2023-02-15T03:21:23.131Z,1.07
2023-02-15T03:29:01.003Z,1.04
2023-02-15T03:36:42.504Z,0.99
2023-02-15T03:44:20.915Z,0.94
2023-02-15T03:51:59.672Z,0.88
2023-02-15T03:59:51.062Z,0.84
2023-02-15T04:07:26.258Z,0.83
2023-02-15T04:15:17.570Z,0.82
2023-02-15T04:23:10.539Z,0.82
2023-02-15T04:30:44.316Z,0.83
2023-02-15T04:38:19.524Z,0.86
2023-02-15T04:45:53.365Z,0.86
2023-02-15T04:53:28.981Z,0.83
2023-02-15T05:01:03.100Z,0.78
2023-02-15T05:08:38.399Z,0.67
2023-02-15T05:16:12.277Z,0.53
2023-02-15T05:23:47.575Z,0.46
2023-02-15T05:31:22.218Z,0.44
2023-02-15T05:38:57.572Z,0.50
2023-02-15T05:46:31.625Z,0.35
2023-02-15T05:54:07.285Z,0.25
2023-02-15T06:01:41.145Z,0.14
2023-02-15T06:09:19.246Z,0.26
2023-02-15T06:16:53.141Z,-0.01
2023-02-15T06:24:28.630Z,-0.04
2023-02-15T06:32:02.631Z,-0.21
2023-02-15T06:39:37.964Z,-0.23
2023-02-15T06:47:11.961Z,-0.13
2023-02-15T06:54:47.105Z,-0.05
2023-02-15T07:02:20.836Z,0.02
2023-02-15T07:09:56.056Z,0.02
2023-02-15T07:17:38.055Z,-0.09
2023-02-15T07:25:14.161Z,-0.17
2023-02-15T07:33:05.984Z,-0.08
2023-02-15T07:40:41.365Z,-0.14
2023-02-15T07:48:15.296Z,-0.16
2023-02-15T07:55:50.492Z,-0.10
2023-02-15T08:03:28.632Z,-0.07
2023-02-15T08:11:23.409Z,-0.02
2023-02-15T08:18:57.423Z,0.00
2023-02-15T08:26:33.714Z,0.08
2023-02-15T08:34:07.961Z,0.12
2023-02-15T08:41:45.758Z,0.07
2023-02-15T08:49:21.378Z,0.15
2023-02-15T08:56:56.613Z,0.15
2023-02-15T09:04:30.762Z,0.23
2023-02-15T09:12:06.285Z,0.36
2023-02-15T09:19:40.075Z,0.46
2023-02-15T09:27:15.361Z,0.53
2023-02-15T09:34:49.212Z,0.60
2023-02-15T09:42:56.297Z,0.77
2023-02-15T09:50:37.045Z,0.84
2023-02-15T09:58:20.931Z,1.05
2023-02-15T10:06:12.809Z,1.08
2023-02-15T10:13:56.449Z,1.19
2023-02-15T10:21:43.666Z,1.39
2023-02-15T10:29:30.392Z,1.47
2023-02-15T10:37:22.203Z,1.66
2023-02-15T10:45:12.468Z,1.80
2023-02-15T10:53:01.280Z,1.94
2023-02-15T11:00:44.086Z,2.08
2023-02-15T11:08:19.211Z,2.48
2023-02-15T11:15:59.435Z,2.73
2023-02-15T11:23:37.755Z,3.10
2023-02-15T11:31:19.120Z,3.36
2023-02-15T11:38:59.287Z,3.72
2023-02-15T11:46:34.617Z,3.98
2023-02-15T11:54:10.868Z,4.34
2023-02-15T12:01:48.019Z,4.68
2023-02-15T12:09:32.581Z,5.03
2023-02-15T12:17:15.756Z,5.35
2023-02-15T12:24:52.233Z,5.78
2023-02-15T12:32:30.688Z,6.23
2023-02-15T12:40:22.345Z,6.30
2023-02-15T12:48:16.938Z,6.51
2023-02-15T12:55:56.456Z,6.81
2023-02-15T13:03:32.357Z,7.19
2023-02-15T13:11:10.363Z,7.13
2023-02-15T13:18:47.819Z,7.52
2023-02-15T13:26:24.573Z,7.57
2023-02-15T13:34:05.217Z,7.87
2023-02-15T13:41:52.731Z,8.03
2023-02-15T13:49:42.073Z,8.11
2023-02-15T13:57:41.284Z,8.18
2023-02-15T14:05:29.313Z,8.24
2023-02-15T14:13:33.160Z,8.45
2023-02-15T14:21:17.455Z,8.53
2023-02-15T14:29:01.435Z,8.63
2023-02-15T14:36:37.063Z,8.54
2023-02-15T14:44:16.272Z,8.61
2023-02-15T14:52:00.045Z,8.72
2023-02-15T14:59:41.423Z,8.96
2023-02-15T15:07:23.216Z,9.15
2023-02-15T15:14:57.088Z,9.21
2023-02-15T15:22:33.487Z,9.17
2023-02-15T15:30:40.701Z,8.98
2023-02-15T15:38:35.204Z,8.86
2023-02-15T15:46:31.814Z,8.80
2023-02-15T15:54:07.401Z,8.63
2023-02-15T16:01:44.705Z,8.44
2023-02-15T16:09:22.564Z,8.16
2023-02-15T16:16:59.697Z,7.87
2023-02-15T16:24:55.287Z,7.61
2023-02-15T16:32:29.596Z,7.34
2023-02-15T16:40:05.475Z,7.13
2023-02-15T16:47:43.562Z,6.88
2023-02-15T16:55:24.560Z,6.66
2023-02-15T17:03:02.047Z,6.45
2023-02-15T17:10:43.071Z,6.26
2023-02-15T17:18:20.702Z,6.06
2023-02-15T17:25:56.367Z,5.91
2023-02-15T17:33:40.408Z,5.79
2023-02-15T17:41:15.710Z,5.58
2023-02-15T17:48:51.403Z,5.43
2023-02-15T17:56:26.630Z,5.30
2023-02-15T18:04:18.086Z,5.19
2023-02-15T18:11:53.512Z,5.02
2023-02-15T18:19:28.014Z,4.85
2023-02-15T18:27:03.285Z,4.71
2023-02-15T18:34:41.066Z,4.61
2023-02-15T18:42:23.086Z,4.46
2023-02-15T18:49:57.042Z,4.31
2023-02-15T18:57:33.556Z,4.21
2023-02-15T19:05:07.682Z,4.05
2023-02-15T19:12:43.118Z,3.95
2023-02-15T19:20:19.608Z,3.86
2023-02-15T19:27:55.908Z,3.74
2023-02-15T19:35:32.973Z,3.63
2023-02-15T19:43:16.111Z,3.56
2023-02-15T19:50:50.633Z,3.44
2023-02-15T19:58:25.864Z,3.34
2023-02-15T20:05:59.974Z,3.27
2023-02-15T20:13:35.344Z,3.15
2023-02-15T20:21:16.477Z,3.09
2023-02-15T20:28:52.615Z,2.99
2023-02-15T20:36:26.363Z,2.90
2023-02-15T20:44:01.871Z,2.84
2023-02-15T20:51:35.929Z,2.74
2023-02-15T20:59:21.592Z,2.70
2023-02-15T21:06:56.092Z,2.58
2023-02-15T21:14:31.097Z,2.52
2023-02-15T21:22:05.161Z,2.41
2023-02-15T21:29:40.470Z,2.33
2023-02-15T21:37:31.499Z,2.26
2023-02-15T21:45:32.855Z,2.17
2023-02-15T21:53:08.586Z,2.02
2023-02-15T22:00:45.046Z,1.98
2023-02-15T22:08:19.942Z,1.93
2023-02-15T22:15:55.313Z,1.86
2023-02-15T22:23:29.119Z,1.80
2023-02-15T22:31:06.764Z,1.74
2023-02-15T22:38:41.072Z,1.69
2023-02-15T22:46:19.967Z,1.62
2023-02-15T22:53:53.815Z,1.54
2023-02-15T23:01:32.800Z,1.49
2023-02-15T23:09:06.716Z,1.46
2023-02-15T23:16:42.197Z,1.42
2023-02-15T23:24:20.847Z,1.39
2023-02-15T23:31:56.999Z,1.34
2023-02-15T23:39:48.588Z,1.30
2023-02-15T23:47:42.622Z,1.25
2023-02-15T23:55:17.211Z,1.21
